sensor_id;sensor_type;location;lat;lon;timestamp;temperature;humidity
7666;DHT22;3875;46.562;4.898;2024-03-17T00:01:36;10.80;91.50
7666;DHT22;3875;46.562;4.898;2024-03-17T00:06:28;10.80;91.70
7666;DHT22;3875;46.562;4.898;2024-03-17T00:08:54;10.70;91.60
7666;DHT22;3875;46.562;4.898;2024-03-17T00:11:20;10.70;91.60
7666;DHT22;3875;46.562;4.898;2024-03-17T00:13:47;10.70;91.60
7666;DHT22;3875;46.562;4.898;2024-03-17T00:16:13;10.70;91.50
7666;DHT22;3875;46.562;4.898;2024-03-17T00:18:39;10.70;91.60
7666;DHT22;3875;46.562;4.898;2024-03-17T00:21:06;10.70;91.50
7666;DHT22;3875;46.562;4.898;2024-03-17T00:23:32;10.60;91.40
7666;DHT22;3875;46.562;4.898;2024-03-17T00:25:57;10.60;91.40
7666;DHT22;3875;46.562;4.898;2024-03-17T00:28:23;10.50;91.40
7666;DHT22;3875;46.562;4.898;2024-03-17T00:30:50;10.50;91.50
7666;DHT22;3875;46.562;4.898;2024-03-17T00:33:16;10.40;91.50
7666;DHT22;3875;46.562;4.898;2024-03-17T00:35:41;10.40;91.60
7666;DHT22;3875;46.562;4.898;2024-03-17T00:38:07;10.30;91.80
7666;DHT22;3875;46.562;4.898;2024-03-17T00:40:39;10.30;91.80
7666;DHT22;3875;46.562;4.898;2024-03-17T00:43:06;10.30;91.70
7666;DHT22;3875;46.562;4.898;2024-03-17T00:45:32;10.30;91.70
7666;DHT22;3875;46.562;4.898;2024-03-17T00:47:57;10.20;91.70
7666;DHT22;3875;46.562;4.898;2024-03-17T00:50:23;10.10;91.90
7666;DHT22;3875;46.562;4.898;2024-03-17T00:52:49;10.10;91.90
7666;DHT22;3875;46.562;4.898;2024-03-17T00:55:14;10.00;92.00
7666;DHT22;3875;46.562;4.898;2024-03-17T00:57:41;10.00;92.00
7666;DHT22;3875;46.562;4.898;2024-03-17T01:00:07;10.00;91.90
7666;DHT22;3875;46.562;4.898;2024-03-17T01:02:37;10.00;92.10
7666;DHT22;3875;46.562;4.898;2024-03-17T01:05:03;10.00;92.20
7666;DHT22;3875;46.562;4.898;2024-03-17T01:07:31;10.00;92.00
7666;DHT22;3875;46.562;4.898;2024-03-17T01:09:57;9.90;91.90
7666;DHT22;3875;46.562;4.898;2024-03-17T01:12:23;9.80;92.00
7666;DHT22;3875;46.562;4.898;2024-03-17T01:14:48;9.80;91.90
7666;DHT22;3875;46.562;4.898;2024-03-17T01:17:14;9.80;92.00
7666;DHT22;3875;46.562;4.898;2024-03-17T01:19:40;9.70;92.00
7666;DHT22;3875;46.562;4.898;2024-03-17T01:22:06;9.70;92.20
7666;DHT22;3875;46.562;4.898;2024-03-17T01:24:31;9.70;92.20
7666;DHT22;3875;46.562;4.898;2024-03-17T01:26:59;9.70;92.20
7666;DHT22;3875;46.562;4.898;2024-03-17T01:29:25;9.70;92.30
7666;DHT22;3875;46.562;4.898;2024-03-17T01:31:51;9.70;92.40
7666;DHT22;3875;46.562;4.898;2024-03-17T01:34:19;9.70;92.30
7666;DHT22;3875;46.562;4.898;2024-03-17T01:36:44;9.70;92.20
7666;DHT22;3875;46.562;4.898;2024-03-17T01:39:10;9.70;92.10
7666;DHT22;3875;46.562;4.898;2024-03-17T01:41:37;9.70;92.10
7666;DHT22;3875;46.562;4.898;2024-03-17T01:44:03;9.60;92.10
7666;DHT22;3875;46.562;4.898;2024-03-17T01:46:29;9.60;92.10
7666;DHT22;3875;46.562;4.898;2024-03-17T01:48:54;9.50;92.40
7666;DHT22;3875;46.562;4.898;2024-03-17T01:51:21;9.40;92.50
7666;DHT22;3875;46.562;4.898;2024-03-17T01:53:48;9.40;92.80
7666;DHT22;3875;46.562;4.898;2024-03-17T01:56:14;9.40;92.90
7666;DHT22;3875;46.562;4.898;2024-03-17T01:58:44;9.40;92.80
7666;DHT22;3875;46.562;4.898;2024-03-17T02:01:10;9.40;92.80
7666;DHT22;3875;46.562;4.898;2024-03-17T02:03:36;9.30;92.80
7666;DHT22;3875;46.562;4.898;2024-03-17T02:06:01;9.30;92.80
7666;DHT22;3875;46.562;4.898;2024-03-17T02:08:27;9.30;92.90
7666;DHT22;3875;46.562;4.898;2024-03-17T02:10:55;9.30;93.00
7666;DHT22;3875;46.562;4.898;2024-03-17T02:13:22;9.30;93.20
7666;DHT22;3875;46.562;4.898;2024-03-17T02:15:48;9.30;93.30
7666;DHT22;3875;46.562;4.898;2024-03-17T02:18:13;9.30;93.40
7666;DHT22;3875;46.562;4.898;2024-03-17T02:20:40;9.30;93.40
7666;DHT22;3875;46.562;4.898;2024-03-17T02:23:21;9.40;93.70
7666;DHT22;3875;46.562;4.898;2024-03-17T02:25:47;9.40;93.60
7666;DHT22;3875;46.562;4.898;2024-03-17T02:28:14;9.40;93.60
7666;DHT22;3875;46.562;4.898;2024-03-17T02:30:39;9.50;93.50
7666;DHT22;3875;46.562;4.898;2024-03-17T02:33:05;9.50;93.50
7666;DHT22;3875;46.562;4.898;2024-03-17T02:35:31;9.50;93.80
7666;DHT22;3875;46.562;4.898;2024-03-17T02:37:56;9.50;93.90
7666;DHT22;3875;46.562;4.898;2024-03-17T02:40:22;9.50;94.20
7666;DHT22;3875;46.562;4.898;2024-03-17T02:42:48;9.50;94.20
7666;DHT22;3875;46.562;4.898;2024-03-17T02:45:14;9.50;94.20
7666;DHT22;3875;46.562;4.898;2024-03-17T02:47:40;9.60;93.80
7666;DHT22;3875;46.562;4.898;2024-03-17T02:50:07;9.60;93.70
7666;DHT22;3875;46.562;4.898;2024-03-17T02:52:34;9.60;93.60
7666;DHT22;3875;46.562;4.898;2024-03-17T02:55:00;9.60;93.40
7666;DHT22;3875;46.562;4.898;2024-03-17T02:57:25;9.60;93.60
7666;DHT22;3875;46.562;4.898;2024-03-17T02:59:55;9.60;93.70
7666;DHT22;3875;46.562;4.898;2024-03-17T03:02:21;9.70;93.70
7666;DHT22;3875;46.562;4.898;2024-03-17T03:04:46;9.70;93.60
7666;DHT22;3875;46.562;4.898;2024-03-17T03:07:12;9.70;93.40
7666;DHT22;3875;46.562;4.898;2024-03-17T03:09:38;9.80;93.30
7666;DHT22;3875;46.562;4.898;2024-03-17T03:12:04;9.80;93.20
7666;DHT22;3875;46.562;4.898;2024-03-17T03:14:30;9.80;93.10
7666;DHT22;3875;46.562;4.898;2024-03-17T03:16:57;9.80;93.10
7666;DHT22;3875;46.562;4.898;2024-03-17T03:19:23;9.80;92.90
7666;DHT22;3875;46.562;4.898;2024-03-17T03:21:49;9.80;92.90
7666;DHT22;3875;46.562;4.898;2024-03-17T03:24:16;9.80;92.90
7666;DHT22;3875;46.562;4.898;2024-03-17T03:26:42;9.80;92.90
7666;DHT22;3875;46.562;4.898;2024-03-17T03:29:12;9.80;92.90
7666;DHT22;3875;46.562;4.898;2024-03-17T03:31:39;9.80;92.90
7666;DHT22;3875;46.562;4.898;2024-03-17T03:34:06;9.80;92.80
7666;DHT22;3875;46.562;4.898;2024-03-17T03:36:34;9.80;92.80
7666;DHT22;3875;46.562;4.898;2024-03-17T03:39:01;9.80;93.00
7666;DHT22;3875;46.562;4.898;2024-03-17T03:41:27;9.80;93.10
7666;DHT22;3875;46.562;4.898;2024-03-17T03:43:53;9.80;93.10
7666;DHT22;3875;46.562;4.898;2024-03-17T03:46:18;9.80;93.10
7666;DHT22;3875;46.562;4.898;2024-03-17T03:48:44;9.80;93.20
7666;DHT22;3875;46.562;4.898;2024-03-17T03:51:10;9.80;93.20
7666;DHT22;3875;46.562;4.898;2024-03-17T03:53:37;9.80;93.10
7666;DHT22;3875;46.562;4.898;2024-03-17T03:56:04;9.80;93.00
7666;DHT22;3875;46.562;4.898;2024-03-17T03:58:34;9.70;93.00
7666;DHT22;3875;46.562;4.898;2024-03-17T04:01:10;9.70;93.00
7666;DHT22;3875;46.562;4.898;2024-03-17T04:03:41;9.70;93.00
7666;DHT22;3875;46.562;4.898;2024-03-17T04:06:08;9.70;93.00
7666;DHT22;3875;46.562;4.898;2024-03-17T04:08:36;9.70;93.20
7666;DHT22;3875;46.562;4.898;2024-03-17T04:11:03;9.70;93.30
7666;DHT22;3875;46.562;4.898;2024-03-17T04:13:30;9.70;93.40
7666;DHT22;3875;46.562;4.898;2024-03-17T04:15:57;9.70;93.40
7666;DHT22;3875;46.562;4.898;2024-03-17T04:18:27;9.70;93.40
7666;DHT22;3875;46.562;4.898;2024-03-17T04:20:56;9.70;93.60
7666;DHT22;3875;46.562;4.898;2024-03-17T04:23:23;9.70;93.60
7666;DHT22;3875;46.562;4.898;2024-03-17T04:25:50;9.70;93.50
7666;DHT22;3875;46.562;4.898;2024-03-17T04:28:16;9.70;93.40
7666;DHT22;3875;46.562;4.898;2024-03-17T04:30:42;9.70;93.50
7666;DHT22;3875;46.562;4.898;2024-03-17T04:33:10;9.70;93.60
7666;DHT22;3875;46.562;4.898;2024-03-17T04:35:37;9.70;93.70
7666;DHT22;3875;46.562;4.898;2024-03-17T04:38:03;9.70;93.70
7666;DHT22;3875;46.562;4.898;2024-03-17T04:40:41;9.70;93.70
7666;DHT22;3875;46.562;4.898;2024-03-17T04:43:08;9.70;93.70
7666;DHT22;3875;46.562;4.898;2024-03-17T04:45:34;9.70;93.70
7666;DHT22;3875;46.562;4.898;2024-03-17T04:47:59;9.70;93.90
7666;DHT22;3875;46.562;4.898;2024-03-17T04:50:25;9.70;94.00
7666;DHT22;3875;46.562;4.898;2024-03-17T04:52:52;9.70;94.00
7666;DHT22;3875;46.562;4.898;2024-03-17T04:55:17;9.80;93.90
7666;DHT22;3875;46.562;4.898;2024-03-17T04:57:45;9.80;93.80
7666;DHT22;3875;46.562;4.898;2024-03-17T05:00:11;9.80;93.80
7666;DHT22;3875;46.562;4.898;2024-03-17T05:02:38;9.80;93.70
7666;DHT22;3875;46.562;4.898;2024-03-17T05:05:04;9.80;93.60
7666;DHT22;3875;46.562;4.898;2024-03-17T05:07:31;9.80;93.70
7666;DHT22;3875;46.562;4.898;2024-03-17T05:09:56;9.70;93.80
7666;DHT22;3875;46.562;4.898;2024-03-17T05:12:23;9.70;93.90
7666;DHT22;3875;46.562;4.898;2024-03-17T05:14:48;9.70;94.00
7666;DHT22;3875;46.562;4.898;2024-03-17T05:17:14;9.70;94.00
7666;DHT22;3875;46.562;4.898;2024-03-17T05:19:40;9.60;94.30
7666;DHT22;3875;46.562;4.898;2024-03-17T05:22:06;9.60;94.40
7666;DHT22;3875;46.562;4.898;2024-03-17T05:24:31;9.60;94.50
7666;DHT22;3875;46.562;4.898;2024-03-17T05:26:57;9.60;94.70
7666;DHT22;3875;46.562;4.898;2024-03-17T05:29:23;9.60;94.80
7666;DHT22;3875;46.562;4.898;2024-03-17T05:31:50;9.60;94.80
7666;DHT22;3875;46.562;4.898;2024-03-17T05:34:15;9.70;94.70
7666;DHT22;3875;46.562;4.898;2024-03-17T05:36:41;9.70;94.60
7666;DHT22;3875;46.562;4.898;2024-03-17T05:39:07;9.70;94.50
7666;DHT22;3875;46.562;4.898;2024-03-17T05:41:32;9.70;94.50
7666;DHT22;3875;46.562;4.898;2024-03-17T05:43:58;9.70;94.20
7666;DHT22;3875;46.562;4.898;2024-03-17T05:46:25;9.70;94.10
7666;DHT22;3875;46.562;4.898;2024-03-17T05:48:54;9.60;94.40
7666;DHT22;3875;46.562;4.898;2024-03-17T05:51:20;9.50;94.50
7666;DHT22;3875;46.562;4.898;2024-03-17T05:53:45;9.50;94.80
7666;DHT22;3875;46.562;4.898;2024-03-17T05:56:11;9.50;95.00
7666;DHT22;3875;46.562;4.898;2024-03-17T05:58:38;9.50;94.80
7666;DHT22;3875;46.562;4.898;2024-03-17T06:01:05;9.50;94.90
7666;DHT22;3875;46.562;4.898;2024-03-17T06:03:35;9.60;94.90
7666;DHT22;3875;46.562;4.898;2024-03-17T06:06:05;9.60;94.90
7666;DHT22;3875;46.562;4.898;2024-03-17T06:08:33;9.60;94.70
7666;DHT22;3875;46.562;4.898;2024-03-17T06:10:59;9.60;94.70
7666;DHT22;3875;46.562;4.898;2024-03-17T06:13:26;9.60;94.70
7666;DHT22;3875;46.562;4.898;2024-03-17T06:15:53;9.60;94.90
7666;DHT22;3875;46.562;4.898;2024-03-17T06:18:19;9.50;95.20
7666;DHT22;3875;46.562;4.898;2024-03-17T06:20:46;9.50;95.30
7666;DHT22;3875;46.562;4.898;2024-03-17T06:23:13;9.50;95.30
7666;DHT22;3875;46.562;4.898;2024-03-17T06:28:05;9.60;95.30
7666;DHT22;3875;46.562;4.898;2024-03-17T06:30:31;9.60;95.30
7666;DHT22;3875;46.562;4.898;2024-03-17T06:32:58;9.70;95.20
7666;DHT22;3875;46.562;4.898;2024-03-17T06:35:24;9.70;95.10
7666;DHT22;3875;46.562;4.898;2024-03-17T06:37:52;9.70;95.20
7666;DHT22;3875;46.562;4.898;2024-03-17T06:40:18;9.70;95.20
7666;DHT22;3875;46.562;4.898;2024-03-17T06:42:43;9.80;95.00
7666;DHT22;3875;46.562;4.898;2024-03-17T06:45:09;9.80;94.90
7666;DHT22;3875;46.562;4.898;2024-03-17T06:47:38;9.80;94.70
7666;DHT22;3875;46.562;4.898;2024-03-17T06:50:06;9.90;94.70
7666;DHT22;3875;46.562;4.898;2024-03-17T06:52:35;9.90;94.70
7666;DHT22;3875;46.562;4.898;2024-03-17T06:55:01;9.90;94.70
7666;DHT22;3875;46.562;4.898;2024-03-17T06:57:27;9.90;94.60
7666;DHT22;3875;46.562;4.898;2024-03-17T06:59:53;10.00;94.80
7666;DHT22;3875;46.562;4.898;2024-03-17T07:02:19;10.00;94.80
7666;DHT22;3875;46.562;4.898;2024-03-17T07:04:45;10.00;94.80
7666;DHT22;3875;46.562;4.898;2024-03-17T07:07:12;10.00;94.80
7666;DHT22;3875;46.562;4.898;2024-03-17T07:09:39;10.00;94.90
7666;DHT22;3875;46.562;4.898;2024-03-17T07:12:08;10.00;95.00
7666;DHT22;3875;46.562;4.898;2024-03-17T07:14:34;10.10;95.00
7666;DHT22;3875;46.562;4.898;2024-03-17T07:17:00;10.10;95.00
7666;DHT22;3875;46.562;4.898;2024-03-17T07:19:26;10.10;95.10
7666;DHT22;3875;46.562;4.898;2024-03-17T07:21:51;10.10;95.30
7666;DHT22;3875;46.562;4.898;2024-03-17T07:24:17;10.20;95.40
7666;DHT22;3875;46.562;4.898;2024-03-17T07:26:43;10.20;95.20
7666;DHT22;3875;46.562;4.898;2024-03-17T07:29:09;10.30;95.20
7666;DHT22;3875;46.562;4.898;2024-03-17T07:31:35;10.40;95.10
7666;DHT22;3875;46.562;4.898;2024-03-17T07:34:00;10.50;94.90
7666;DHT22;3875;46.562;4.898;2024-03-17T07:36:26;10.60;94.80
7666;DHT22;3875;46.562;4.898;2024-03-17T07:38:52;10.60;94.60
7666;DHT22;3875;46.562;4.898;2024-03-17T07:41:18;10.70;94.40
7666;DHT22;3875;46.562;4.898;2024-03-17T07:43:45;10.80;94.30
7666;DHT22;3875;46.562;4.898;2024-03-17T07:46:12;10.80;94.00
7666;DHT22;3875;46.562;4.898;2024-03-17T07:48:42;10.80;94.00
7666;DHT22;3875;46.562;4.898;2024-03-17T07:51:10;10.80;93.90
7666;DHT22;3875;46.562;4.898;2024-03-17T07:53:37;10.80;93.90
7666;DHT22;3875;46.562;4.898;2024-03-17T07:56:10;10.80;93.80
7666;DHT22;3875;46.562;4.898;2024-03-17T07:58:38;10.80;93.80
7666;DHT22;3875;46.562;4.898;2024-03-17T08:01:06;10.70;94.00
7666;DHT22;3875;46.562;4.898;2024-03-17T08:03:33;10.80;94.10
7666;DHT22;3875;46.562;4.898;2024-03-17T08:06:03;10.80;94.20
7666;DHT22;3875;46.562;4.898;2024-03-17T08:08:29;10.80;94.20
7666;DHT22;3875;46.562;4.898;2024-03-17T08:10:55;10.90;94.20
7666;DHT22;3875;46.562;4.898;2024-03-17T08:13:21;10.90;94.20
7666;DHT22;3875;46.562;4.898;2024-03-17T08:15:56;10.90;94.30
7666;DHT22;3875;46.562;4.898;2024-03-17T08:18:22;11.00;94.30
7666;DHT22;3875;46.562;4.898;2024-03-17T08:20:48;11.00;94.30
7666;DHT22;3875;46.562;4.898;2024-03-17T08:23:13;11.00;94.20
7666;DHT22;3875;46.562;4.898;2024-03-17T08:25:39;11.00;94.10
7666;DHT22;3875;46.562;4.898;2024-03-17T08:28:06;11.00;94.20
7666;DHT22;3875;46.562;4.898;2024-03-17T08:30:34;11.10;94.40
7666;DHT22;3875;46.562;4.898;2024-03-17T08:33:00;11.20;94.20
7666;DHT22;3875;46.562;4.898;2024-03-17T08:35:26;11.30;94.50
7666;DHT22;3875;46.562;4.898;2024-03-17T08:37:52;11.40;94.40
7666;DHT22;3875;46.562;4.898;2024-03-17T08:40:21;11.60;94.40
7666;DHT22;3875;46.562;4.898;2024-03-17T08:42:48;11.70;93.80
7666;DHT22;3875;46.562;4.898;2024-03-17T08:45:14;11.90;93.60
7666;DHT22;3875;46.562;4.898;2024-03-17T08:47:39;11.90;93.20
7666;DHT22;3875;46.562;4.898;2024-03-17T08:50:06;12.00;92.80
7666;DHT22;3875;46.562;4.898;2024-03-17T08:52:34;12.10;92.80
7666;DHT22;3875;46.562;4.898;2024-03-17T08:54:59;12.20;92.80
7666;DHT22;3875;46.562;4.898;2024-03-17T08:57:25;12.30;92.80
7666;DHT22;3875;46.562;4.898;2024-03-17T08:59:51;12.50;92.50
7666;DHT22;3875;46.562;4.898;2024-03-17T09:02:18;12.60;92.10
7666;DHT22;3875;46.562;4.898;2024-03-17T09:04:45;12.70;91.70
7666;DHT22;3875;46.562;4.898;2024-03-17T09:07:11;12.80;91.60
7666;DHT22;3875;46.562;4.898;2024-03-17T09:09:36;13.10;91.60
7666;DHT22;3875;46.562;4.898;2024-03-17T09:12:02;13.40;91.10
7666;DHT22;3875;46.562;4.898;2024-03-17T09:14:29;13.60;90.00
7666;DHT22;3875;46.562;4.898;2024-03-17T09:16:55;13.80;90.00
7666;DHT22;3875;46.562;4.898;2024-03-17T09:19:23;14.10;89.40
7666;DHT22;3875;46.562;4.898;2024-03-17T09:21:49;14.50;89.50
7666;DHT22;3875;46.562;4.898;2024-03-17T09:24:15;14.70;87.70
7666;DHT22;3875;46.562;4.898;2024-03-17T09:26:40;14.90;86.90
7666;DHT22;3875;46.562;4.898;2024-03-17T09:29:06;14.90;86.40
7666;DHT22;3875;46.562;4.898;2024-03-17T09:31:32;14.90;86.30
7666;DHT22;3875;46.562;4.898;2024-03-17T09:34:01;14.90;86.40
7666;DHT22;3875;46.562;4.898;2024-03-17T09:36:27;14.80;86.00
7666;DHT22;3875;46.562;4.898;2024-03-17T09:38:53;14.70;86.10
7666;DHT22;3875;46.562;4.898;2024-03-17T09:41:24;14.70;86.20
7666;DHT22;3875;46.562;4.898;2024-03-17T09:43:54;14.60;86.40
7666;DHT22;3875;46.562;4.898;2024-03-17T09:46:25;14.60;86.40
7666;DHT22;3875;46.562;4.898;2024-03-17T09:48:53;14.60;86.90
7666;DHT22;3875;46.562;4.898;2024-03-17T09:51:24;14.60;86.90
7666;DHT22;3875;46.562;4.898;2024-03-17T09:53:51;14.60;86.80
7666;DHT22;3875;46.562;4.898;2024-03-17T09:56:18;14.70;86.60
7666;DHT22;3875;46.562;4.898;2024-03-17T09:58:53;14.80;86.20
7666;DHT22;3875;46.562;4.898;2024-03-17T10:01:19;14.80;86.40
7666;DHT22;3875;46.562;4.898;2024-03-17T10:03:45;14.90;86.80
7666;DHT22;3875;46.562;4.898;2024-03-17T10:06:16;15.00;86.30
7666;DHT22;3875;46.562;4.898;2024-03-17T10:08:47;15.20;86.60
7666;DHT22;3875;46.562;4.898;2024-03-17T10:11:15;15.40;85.40
7666;DHT22;3875;46.562;4.898;2024-03-17T10:13:42;15.50;85.20
7666;DHT22;3875;46.562;4.898;2024-03-17T10:16:24;15.50;84.50
7666;DHT22;3875;46.562;4.898;2024-03-17T10:18:50;15.60;84.00
7666;DHT22;3875;46.562;4.898;2024-03-17T10:21:25;15.70;84.30
7666;DHT22;3875;46.562;4.898;2024-03-17T10:24:11;15.70;84.30
7666;DHT22;3875;46.562;4.898;2024-03-17T10:26:53;15.80;84.50
7666;DHT22;3875;46.562;4.898;2024-03-17T10:29:25;16.10;84.00
7666;DHT22;3875;46.562;4.898;2024-03-17T10:34:22;16.30;83.30
7666;DHT22;3875;46.562;4.898;2024-03-17T10:36:50;16.50;83.30
7666;DHT22;3875;46.562;4.898;2024-03-17T10:39:24;16.50;83.30
7666;DHT22;3875;46.562;4.898;2024-03-17T10:42:04;16.70;82.70
7666;DHT22;3875;46.562;4.898;2024-03-17T10:44:35;16.70;82.80
7666;DHT22;3875;46.562;4.898;2024-03-17T10:47:02;16.70;82.80
7666;DHT22;3875;46.562;4.898;2024-03-17T10:49:33;16.70;83.00
7666;DHT22;3875;46.562;4.898;2024-03-17T10:52:36;16.80;82.70
7666;DHT22;3875;46.562;4.898;2024-03-17T10:54:55;16.80;82.50
7666;DHT22;3875;46.562;4.898;2024-03-17T10:59:52;16.80;82.10
7666;DHT22;3875;46.562;4.898;2024-03-17T11:02:23;16.80;82.30
7666;DHT22;3875;46.562;4.898;2024-03-17T11:04:54;17.00;82.60
7666;DHT22;3875;46.562;4.898;2024-03-17T11:07:21;17.10;82.50
7666;DHT22;3875;46.562;4.898;2024-03-17T11:09:49;17.10;82.00
7666;DHT22;3875;46.562;4.898;2024-03-17T11:17:46;17.30;81.80
7666;DHT22;3875;46.562;4.898;2024-03-17T11:20:17;17.30;82.00
7666;DHT22;3875;46.562;4.898;2024-03-17T11:22:45;17.20;81.60
7666;DHT22;3875;46.562;4.898;2024-03-17T11:27:55;17.20;82.00
7666;DHT22;3875;46.562;4.898;2024-03-17T11:38:56;17.40;81.80
7666;DHT22;3875;46.562;4.898;2024-03-17T11:41:41;17.40;82.20
7666;DHT22;3875;46.562;4.898;2024-03-17T11:46:50;17.80;82.40
7666;DHT22;3875;46.562;4.898;2024-03-17T11:49:28;18.00;81.50
7666;DHT22;3875;46.562;4.898;2024-03-17T11:51:55;18.10;81.20
7666;DHT22;3875;46.562;4.898;2024-03-17T11:54:26;18.20;81.20
7666;DHT22;3875;46.562;4.898;2024-03-17T11:59:28;18.70;80.20
7666;DHT22;3875;46.562;4.898;2024-03-17T12:01:55;18.80;80.00
7666;DHT22;3875;46.562;4.898;2024-03-17T12:04:22;18.80;80.10
7666;DHT22;3875;46.562;4.898;2024-03-17T12:06:59;18.90;79.70
7666;DHT22;3875;46.562;4.898;2024-03-17T12:12:03;19.20;79.30
7666;DHT22;3875;46.562;4.898;2024-03-17T12:14:36;19.30;79.50
7666;DHT22;3875;46.562;4.898;2024-03-17T12:17:04;19.50;78.80
7666;DHT22;3875;46.562;4.898;2024-03-17T12:19:30;19.60;77.70
7666;DHT22;3875;46.562;4.898;2024-03-17T12:22:01;19.50;78.20
7666;DHT22;3875;46.562;4.898;2024-03-17T12:24:29;19.40;77.70
7666;DHT22;3875;46.562;4.898;2024-03-17T12:26:56;19.50;77.90
7666;DHT22;3875;46.562;4.898;2024-03-17T12:29:38;19.50;77.50
7666;DHT22;3875;46.562;4.898;2024-03-17T12:34:37;19.50;77.00
7666;DHT22;3875;46.562;4.898;2024-03-17T12:37:03;19.70;76.90
7666;DHT22;3875;46.562;4.898;2024-03-17T12:39:32;20.10;76.40
7666;DHT22;3875;46.562;4.898;2024-03-17T12:44:31;20.30;75.70
7666;DHT22;3875;46.562;4.898;2024-03-17T12:46:58;20.40;74.90
7666;DHT22;3875;46.562;4.898;2024-03-17T12:49:26;20.40;74.80
7666;DHT22;3875;46.562;4.898;2024-03-17T12:51:52;20.40;74.50
7666;DHT22;3875;46.562;4.898;2024-03-17T12:54:24;20.40;74.80
7666;DHT22;3875;46.562;4.898;2024-03-17T12:57:06;20.40;74.10
7666;DHT22;3875;46.562;4.898;2024-03-17T13:02:43;20.60;74.40
7666;DHT22;3875;46.562;4.898;2024-03-17T13:05:20;20.60;74.20
7666;DHT22;3875;46.562;4.898;2024-03-17T13:07:46;20.70;74.20
7666;DHT22;3875;46.562;4.898;2024-03-17T13:10:16;20.70;73.60
7666;DHT22;3875;46.562;4.898;2024-03-17T13:12:43;20.80;73.50
7666;DHT22;3875;46.562;4.898;2024-03-17T13:15:11;21.00;73.20
7666;DHT22;3875;46.562;4.898;2024-03-17T13:17:38;21.00;72.90
7666;DHT22;3875;46.562;4.898;2024-03-17T13:20:12;21.20;73.50
7666;DHT22;3875;46.562;4.898;2024-03-17T13:22:38;21.20;72.90
7666;DHT22;3875;46.562;4.898;2024-03-17T13:25:09;21.00;71.50
7666;DHT22;3875;46.562;4.898;2024-03-17T13:27:38;21.00;72.30
7666;DHT22;3875;46.562;4.898;2024-03-17T13:30:04;20.80;71.90
7666;DHT22;3875;46.562;4.898;2024-03-17T13:32:31;20.60;73.10
7666;DHT22;3875;46.562;4.898;2024-03-17T13:37:23;20.50;73.50
7666;DHT22;3875;46.562;4.898;2024-03-17T13:39:49;20.40;73.40
7666;DHT22;3875;46.562;4.898;2024-03-17T13:42:15;20.30;72.70
7666;DHT22;3875;46.562;4.898;2024-03-17T13:44:41;20.20;72.60
7666;DHT22;3875;46.562;4.898;2024-03-17T13:47:07;20.20;72.90
7666;DHT22;3875;46.562;4.898;2024-03-17T13:49:33;20.10;73.00
7666;DHT22;3875;46.562;4.898;2024-03-17T13:51:59;20.10;73.10
7666;DHT22;3875;46.562;4.898;2024-03-17T13:54:25;20.00;72.80
7666;DHT22;3875;46.562;4.898;2024-03-17T13:56:51;20.00;72.60
7666;DHT22;3875;46.562;4.898;2024-03-17T13:59:17;20.00;72.60
7666;DHT22;3875;46.562;4.898;2024-03-17T14:01:43;20.00;72.30
7666;DHT22;3875;46.562;4.898;2024-03-17T14:04:16;19.90;72.10
7666;DHT22;3875;46.562;4.898;2024-03-17T14:06:46;19.90;73.00
7666;DHT22;3875;46.562;4.898;2024-03-17T14:09:15;20.00;73.10
7666;DHT22;3875;46.562;4.898;2024-03-17T14:11:43;20.10;74.00
7666;DHT22;3875;46.562;4.898;2024-03-17T14:14:10;20.30;73.20
7666;DHT22;3875;46.562;4.898;2024-03-17T14:16:36;20.40;72.90
7666;DHT22;3875;46.562;4.898;2024-03-17T14:19:02;20.50;72.40
7666;DHT22;3875;46.562;4.898;2024-03-17T14:21:28;20.50;72.00
7666;DHT22;3875;46.562;4.898;2024-03-17T14:23:55;20.60;71.20
7666;DHT22;3875;46.562;4.898;2024-03-17T14:26:21;20.60;71.20
7666;DHT22;3875;46.562;4.898;2024-03-17T14:28:48;20.70;71.50
7666;DHT22;3875;46.562;4.898;2024-03-17T14:31:15;20.70;71.10
7666;DHT22;3875;46.562;4.898;2024-03-17T14:33:41;20.60;70.90
7666;DHT22;3875;46.562;4.898;2024-03-17T14:36:07;20.50;71.40
7666;DHT22;3875;46.562;4.898;2024-03-17T14:38:33;20.40;71.30
7666;DHT22;3875;46.562;4.898;2024-03-17T14:40:58;20.40;71.20
7666;DHT22;3875;46.562;4.898;2024-03-17T14:43:24;20.40;71.40
7666;DHT22;3875;46.562;4.898;2024-03-17T14:45:50;20.30;71.00
7666;DHT22;3875;46.562;4.898;2024-03-17T14:48:16;20.20;71.10
7666;DHT22;3875;46.562;4.898;2024-03-17T14:50:41;20.10;70.50
7666;DHT22;3875;46.562;4.898;2024-03-17T14:53:07;19.90;71.30
7666;DHT22;3875;46.562;4.898;2024-03-17T14:55:33;19.80;71.20
7666;DHT22;3875;46.562;4.898;2024-03-17T14:57:59;19.80;71.60
7666;DHT22;3875;46.562;4.898;2024-03-17T15:00:28;19.70;71.50
7666;DHT22;3875;46.562;4.898;2024-03-17T15:02:56;19.60;72.10
7666;DHT22;3875;46.562;4.898;2024-03-17T15:05:22;19.60;72.70
7666;DHT22;3875;46.562;4.898;2024-03-17T15:07:49;19.50;72.90
7666;DHT22;3875;46.562;4.898;2024-03-17T15:10:15;19.40;73.10
7666;DHT22;3875;46.562;4.898;2024-03-17T15:12:41;19.40;73.70
7666;DHT22;3875;46.562;4.898;2024-03-17T15:15:07;19.30;73.50
7666;DHT22;3875;46.562;4.898;2024-03-17T15:17:37;19.20;73.40
7666;DHT22;3875;46.562;4.898;2024-03-17T15:20:03;19.10;73.90
7666;DHT22;3875;46.562;4.898;2024-03-17T15:22:44;19.10;73.80
7666;DHT22;3875;46.562;4.898;2024-03-17T15:25:09;19.00;74.20
7666;DHT22;3875;46.562;4.898;2024-03-17T15:27:35;18.90;74.70
7666;DHT22;3875;46.562;4.898;2024-03-17T15:30:01;18.80;75.10
7666;DHT22;3875;46.562;4.898;2024-03-17T15:32:26;18.80;75.40
7666;DHT22;3875;46.562;4.898;2024-03-17T15:34:52;18.70;75.20
7666;DHT22;3875;46.562;4.898;2024-03-17T15:37:18;18.70;75.10
7666;DHT22;3875;46.562;4.898;2024-03-17T15:39:44;18.60;75.20
7666;DHT22;3875;46.562;4.898;2024-03-17T15:42:09;18.60;75.50
7666;DHT22;3875;46.562;4.898;2024-03-17T15:44:38;18.60;76.10
7666;DHT22;3875;46.562;4.898;2024-03-17T15:47:05;18.60;76.00
7666;DHT22;3875;46.562;4.898;2024-03-17T15:49:31;18.60;75.60
7666;DHT22;3875;46.562;4.898;2024-03-17T15:51:57;18.50;75.80
7666;DHT22;3875;46.562;4.898;2024-03-17T15:54:23;18.40;76.10
7666;DHT22;3875;46.562;4.898;2024-03-17T15:56:49;18.30;76.30
7666;DHT22;3875;46.562;4.898;2024-03-17T15:59:14;18.30;76.30
7666;DHT22;3875;46.562;4.898;2024-03-17T16:01:44;18.20;76.40
7666;DHT22;3875;46.562;4.898;2024-03-17T16:04:10;18.10;76.70
7666;DHT22;3875;46.562;4.898;2024-03-17T16:06:37;18.10;76.90
7666;DHT22;3875;46.562;4.898;2024-03-17T16:09:05;18.10;77.20
7666;DHT22;3875;46.562;4.898;2024-03-17T16:11:35;18.00;77.30
7666;DHT22;3875;46.562;4.898;2024-03-17T16:14:03;18.00;77.60
7666;DHT22;3875;46.562;4.898;2024-03-17T16:16:30;18.00;77.80
7666;DHT22;3875;46.562;4.898;2024-03-17T16:18:57;17.90;78.00
7666;DHT22;3875;46.562;4.898;2024-03-17T16:21:23;17.90;78.00
7666;DHT22;3875;46.562;4.898;2024-03-17T16:23:56;17.80;78.30
7666;DHT22;3875;46.562;4.898;2024-03-17T16:26:25;17.80;78.50
7666;DHT22;3875;46.562;4.898;2024-03-17T16:28:51;17.70;78.40
7666;DHT22;3875;46.562;4.898;2024-03-17T16:31:20;17.70;78.70
7666;DHT22;3875;46.562;4.898;2024-03-17T16:33:46;17.60;79.10
7666;DHT22;3875;46.562;4.898;2024-03-17T16:36:14;17.50;79.40
7666;DHT22;3875;46.562;4.898;2024-03-17T16:38:40;17.40;79.90
7666;DHT22;3875;46.562;4.898;2024-03-17T16:41:06;17.40;80.50
7666;DHT22;3875;46.562;4.898;2024-03-17T16:43:46;17.30;80.80
7666;DHT22;3875;46.562;4.898;2024-03-17T16:46:33;17.10;81.40
7666;DHT22;3875;46.562;4.898;2024-03-17T16:49:06;17.10;81.80
7666;DHT22;3875;46.562;4.898;2024-03-17T16:51:32;17.00;82.10
7666;DHT22;3875;46.562;4.898;2024-03-17T16:53:58;16.90;82.40